createdAt,value
2023-04-21T18:49:40.678Z,20.40
2023-04-21T18:52:07.507Z,18.40
2023-04-21T18:54:34.557Z,16.50
2023-04-21T18:57:02.169Z,15.00
2023-04-21T18:59:28.682Z,13.90
2023-04-21T19:01:55.437Z,13.10
2023-04-21T19:04:22.302Z,12.60
2023-04-21T19:06:49.312Z,12.30
2023-04-21T19:09:16.189Z,12.10
2023-04-21T19:11:42.949Z,11.80
2023-04-21T19:14:09.611Z,11.70
2023-04-21T19:16:36.393Z,11.50
2023-04-21T19:19:04.700Z,11.50
2023-04-21T19:21:31.266Z,11.40
2023-04-21T19:23:58.174Z,11.30
2023-04-21T19:26:25.160Z,11.20
2023-04-21T19:28:51.814Z,11.20
2023-04-21T19:31:21.489Z,11.10
2023-04-21T19:33:49.367Z,11.10
2023-04-21T19:36:16.111Z,11.10
2023-04-21T19:38:43.292Z,11.10
2023-04-21T19:41:10.005Z,11.00
2023-04-21T19:43:36.642Z,11.00
2023-04-21T19:46:03.847Z,11.00
2023-04-21T19:48:31.199Z,11.00
2023-04-21T19:50:57.774Z,10.90
2023-04-21T19:53:24.287Z,10.90
2023-04-21T19:55:52.498Z,10.90
2023-04-21T19:58:32.001Z,10.90
2023-04-21T20:01:05.366Z,10.80
2023-04-21T20:03:32.639Z,10.80
2023-04-21T20:05:59.439Z,10.80
2023-04-21T20:08:26.008Z,10.80
2023-04-21T20:10:52.515Z,10.70
2023-04-21T20:13:19.018Z,10.70
2023-04-21T20:15:45.926Z,10.70
2023-04-21T20:18:12.883Z,10.70
2023-04-21T20:20:40.611Z,10.70
2023-04-21T20:23:07.238Z,10.60
2023-04-21T20:25:33.839Z,10.60
2023-04-21T20:28:00.732Z,10.60
2023-04-21T20:30:27.449Z,10.60
2023-04-21T20:32:54.080Z,10.60
2023-04-21T20:35:20.861Z,10.60
2023-04-21T20:37:48.733Z,10.60
2023-04-21T20:40:15.769Z,10.60
2023-04-21T20:42:44.819Z,10.50
2023-04-21T20:45:12.748Z,10.50
2023-04-21T20:47:39.717Z,10.50
2023-04-21T20:50:07.141Z,10.50
2023-04-21T20:52:34.027Z,10.50
2023-04-21T20:55:00.816Z,10.50
2023-04-21T20:57:27.601Z,10.40
2023-04-21T20:59:54.432Z,10.50
2023-04-21T21:02:21.229Z,10.40
2023-04-21T21:04:47.955Z,10.40
2023-04-21T21:07:15.030Z,10.40
2023-04-21T21:09:41.756Z,10.40
2023-04-21T21:12:08.417Z,10.40
2023-04-21T21:14:35.314Z,10.40
2023-04-21T21:17:02.873Z,10.40
2023-04-21T21:19:29.983Z,10.40
2023-04-21T21:21:56.628Z,10.40
2023-04-21T21:24:24.768Z,10.40
2023-04-21T21:26:51.324Z,10.30
2023-04-21T21:29:18.260Z,10.30
2023-04-21T21:31:44.842Z,10.30
2023-04-21T21:34:11.423Z,10.30
2023-04-21T21:36:37.934Z,10.30
2023-04-21T21:39:06.910Z,10.30
2023-04-21T21:41:34.909Z,10.30
2023-04-21T21:44:01.626Z,10.30
2023-04-21T21:46:28.295Z,10.40
2023-04-21T21:48:54.982Z,10.30
2023-04-21T21:51:21.556Z,10.40
2023-04-21T21:53:48.070Z,10.40
2023-04-21T21:56:14.690Z,10.30
2023-04-21T21:58:41.487Z,10.30
2023-04-21T22:01:08.627Z,10.20
2023-04-21T22:03:36.184Z,10.20
2023-04-21T22:06:03.355Z,10.20
2023-04-21T22:08:30.024Z,10.10
2023-04-21T22:10:57.053Z,10.10
2023-04-21T22:13:23.609Z,10.10
2023-04-21T22:15:50.274Z,10.00
2023-04-21T22:18:18.454Z,10.00
2023-04-21T22:20:45.177Z,10.00
2023-04-21T22:23:12.335Z,9.90
2023-04-21T22:25:38.894Z,9.90
2023-04-21T22:28:05.558Z,9.90
2023-04-21T22:30:32.313Z,9.80
2023-04-21T22:32:58.922Z,9.90
2023-04-21T22:35:25.678Z,9.90
2023-04-21T22:37:52.210Z,9.90
2023-04-21T22:40:18.771Z,9.90
2023-04-21T22:42:45.414Z,9.90
2023-04-21T22:45:12.172Z,9.90
2023-04-21T22:47:38.808Z,9.90
2023-04-21T22:50:06.037Z,9.80
2023-04-21T22:52:32.926Z,9.80
2023-04-21T22:54:59.453Z,9.80
2023-04-21T22:57:26.833Z,9.80
2023-04-21T22:59:53.619Z,9.80
2023-04-21T23:02:20.218Z,9.80
2023-04-21T23:04:46.882Z,9.80
2023-04-21T23:07:13.631Z,9.70
2023-04-21T23:09:40.458Z,9.70
2023-04-21T23:12:08.135Z,9.70
2023-04-21T23:14:34.815Z,9.70
2023-04-21T23:17:01.388Z,9.70
2023-04-21T23:19:27.946Z,9.60
2023-04-21T23:21:54.606Z,9.70
2023-04-21T23:24:21.414Z,9.60
2023-04-21T23:26:48.100Z,9.60
2023-04-21T23:29:14.649Z,9.60
2023-04-21T23:31:41.415Z,9.60
2023-04-21T23:34:08.206Z,9.50
2023-04-21T23:36:34.836Z,9.50
2023-04-21T23:39:01.546Z,9.50
2023-04-21T23:41:28.219Z,9.40
2023-04-21T23:43:54.882Z,9.50
2023-04-21T23:46:21.429Z,9.40
2023-04-21T23:48:48.080Z,9.40
2023-04-21T23:51:15.617Z,9.40
2023-04-21T23:53:42.360Z,9.40
2023-04-21T23:56:09.018Z,9.40
2023-04-21T23:58:35.700Z,9.30
